sensor_id;sensor_type;location;lat;lon;timestamp;pressure;altitude;pressure_sealevel;temperature;humidity
16738;BME280;17906;47.684;10.806;2022-07-09T00:01:54;94380.16;;;6.94;85.21
16738;BME280;17906;47.684;10.806;2022-07-09T00:04:20;94371.03;;;6.67;85.68
16738;BME280;17906;47.684;10.806;2022-07-09T00:06:47;94378.34;;;6.73;85.35
16738;BME280;17906;47.684;10.806;2022-07-09T00:09:13;94374.84;;;6.79;85.01
16738;BME280;17906;47.684;10.806;2022-07-09T00:11:40;94374.00;;;6.72;85.57
16738;BME280;17906;47.684;10.806;2022-07-09T00:14:07;94374.84;;;6.79;85.25
16738;BME280;17906;47.684;10.806;2022-07-09T00:16:33;94374.44;;;6.76;85.45
16738;BME280;17906;47.684;10.806;2022-07-09T00:19:01;94365.91;;;6.72;85.15
16738;BME280;17906;47.684;10.806;2022-07-09T00:21:28;94369.25;;;6.74;84.60
16738;BME280;17906;47.684;10.806;2022-07-09T00:23:55;94365.78;;;6.59;85.87
16738;BME280;17906;47.684;10.806;2022-07-09T00:26:21;94373.03;;;6.30;85.76
16738;BME280;17906;47.684;10.806;2022-07-09T00:28:48;94369.50;;;6.51;85.50
16738;BME280;17906;47.684;10.806;2022-07-09T00:31:15;94367.03;;;6.28;86.08
16738;BME280;17906;47.684;10.806;2022-07-09T00:33:41;94353.19;;;6.38;85.82
16738;BME280;17906;47.684;10.806;2022-07-09T00:36:09;94359.19;;;6.33;85.94
16738;BME280;17906;47.684;10.806;2022-07-09T00:38:36;94353.03;;;6.39;86.16
16738;BME280;17906;47.684;10.806;2022-07-09T00:41:02;94352.56;;;6.36;85.78
16738;BME280;17906;47.684;10.806;2022-07-09T00:43:29;94355.22;;;6.29;86.34
16738;BME280;17906;47.684;10.806;2022-07-09T00:45:56;94359.13;;;6.27;86.46
16738;BME280;17906;47.684;10.806;2022-07-09T00:48:23;94354.44;;;6.35;86.00
16738;BME280;17906;47.684;10.806;2022-07-09T00:50:50;94357.75;;;6.09;86.91
16738;BME280;17906;47.684;10.806;2022-07-09T00:53:23;94352.41;;;6.16;86.96
16738;BME280;17906;47.684;10.806;2022-07-09T00:55:51;94357.75;;;6.09;86.61
16738;BME280;17906;47.684;10.806;2022-07-09T00:58:20;94359.25;;;5.97;87.14
16738;BME280;17906;47.684;10.806;2022-07-09T01:00:47;94357.72;;;5.88;87.41
16738;BME280;17906;47.684;10.806;2022-07-09T01:03:14;94359.56;;;5.88;88.02
16738;BME280;17906;47.684;10.806;2022-07-09T01:05:41;94350.41;;;5.82;87.92
16738;BME280;17906;47.684;10.806;2022-07-09T01:08:08;94351.19;;;5.97;87.28
16738;BME280;17906;47.684;10.806;2022-07-09T01:10:36;94353.19;;;6.10;86.92
16738;BME280;17906;47.684;10.806;2022-07-09T01:13:04;94351.78;;;6.14;87.11
16738;BME280;17906;47.684;10.806;2022-07-09T01:15:31;94341.59;;;6.09;86.95
16738;BME280;17906;47.684;10.806;2022-07-09T01:17:57;94338.09;;;6.16;85.95
16738;BME280;17906;47.684;10.806;2022-07-09T01:20:26;94339.84;;;6.23;85.74
16738;BME280;17906;47.684;10.806;2022-07-09T01:22:54;94334.66;;;6.22;85.81
16738;BME280;17906;47.684;10.806;2022-07-09T01:25:28;94338.06;;;6.09;86.07
16738;BME280;17906;47.684;10.806;2022-07-09T01:27:57;94330.88;;;5.73;87.26
16738;BME280;17906;47.684;10.806;2022-07-09T01:30:24;94333.69;;;5.65;88.19
16738;BME280;17906;47.684;10.806;2022-07-09T01:32:52;94340.03;;;5.79;87.36
16738;BME280;17906;47.684;10.806;2022-07-09T01:35:18;94334.41;;;5.95;86.16
16738;BME280;17906;47.684;10.806;2022-07-09T01:37:47;94337.25;;;5.94;86.58
16738;BME280;17906;47.684;10.806;2022-07-09T01:40:14;94338.75;;;5.96;85.72
16738;BME280;17906;47.684;10.806;2022-07-09T01:42:40;94331.72;;;5.95;85.80
16738;BME280;17906;47.684;10.806;2022-07-09T01:45:07;94327.09;;;5.89;85.79
16738;BME280;17906;47.684;10.806;2022-07-09T01:47:34;94326.88;;;5.91;85.97
16738;BME280;17906;47.684;10.806;2022-07-09T01:50:01;94327.81;;;5.76;86.87
16738;BME280;17906;47.684;10.806;2022-07-09T01:52:28;94323.69;;;5.80;86.78
16738;BME280;17906;47.684;10.806;2022-07-09T01:54:57;94330.38;;;5.84;86.63
16738;BME280;17906;47.684;10.806;2022-07-09T01:57:24;94330.81;;;5.88;85.91
16738;BME280;17906;47.684;10.806;2022-07-09T01:59:50;94331.97;;;5.79;85.67
16738;BME280;17906;47.684;10.806;2022-07-09T02:02:17;94323.69;;;5.80;84.86
16738;BME280;17906;47.684;10.806;2022-07-09T02:04:44;94318.91;;;5.76;84.90
16738;BME280;17906;47.684;10.806;2022-07-09T02:07:11;94323.25;;;5.55;86.84
16738;BME280;17906;47.684;10.806;2022-07-09T02:09:38;94319.00;;;5.46;88.01
16738;BME280;17906;47.684;10.806;2022-07-09T02:12:07;94317.19;;;5.32;88.31
16738;BME280;17906;47.684;10.806;2022-07-09T02:14:34;94309.97;;;5.33;87.86
16738;BME280;17906;47.684;10.806;2022-07-09T02:17:01;94313.31;;;5.56;87.33
16738;BME280;17906;47.684;10.806;2022-07-09T02:19:27;94307.16;;;5.41;87.56
16738;BME280;17906;47.684;10.806;2022-07-09T02:21:54;94307.41;;;5.46;87.14
16738;BME280;17906;47.684;10.806;2022-07-09T02:24:20;94312.69;;;5.54;87.02
16738;BME280;17906;47.684;10.806;2022-07-09T02:26:47;94303.31;;;5.50;86.36
16738;BME280;17906;47.684;10.806;2022-07-09T02:29:15;94293.78;;;5.47;87.27
16738;BME280;17906;47.684;10.806;2022-07-09T02:31:42;94300.81;;;5.48;86.47
16738;BME280;17906;47.684;10.806;2022-07-09T02:34:09;94298.50;;;5.45;86.76
16738;BME280;17906;47.684;10.806;2022-07-09T02:36:35;94305.75;;;5.45;86.55
16738;BME280;17906;47.684;10.806;2022-07-09T02:39:02;94294.81;;;5.46;86.40
16738;BME280;17906;47.684;10.806;2022-07-09T02:41:28;94293.66;;;5.55;85.75
16738;BME280;17906;47.684;10.806;2022-07-09T02:43:55;94294.41;;;5.49;86.88
16738;BME280;17906;47.684;10.806;2022-07-09T02:46:23;94288.19;;;5.49;86.10
16738;BME280;17906;47.684;10.806;2022-07-09T02:48:50;94287.81;;;5.31;87.09
16738;BME280;17906;47.684;10.806;2022-07-09T02:51:16;94288.06;;;5.36;87.41
16738;BME280;17906;47.684;10.806;2022-07-09T02:53:43;94287.75;;;5.45;86.06
16738;BME280;17906;47.684;10.806;2022-07-09T02:56:09;94284.78;;;5.40;85.97
16738;BME280;17906;47.684;10.806;2022-07-09T02:58:36;94278.84;;;5.23;86.87
16738;BME280;17906;47.684;10.806;2022-07-09T03:01:03;94277.09;;;5.16;87.24
16738;BME280;17906;47.684;10.806;2022-07-09T03:03:32;94277.03;;;5.09;87.87
16738;BME280;17906;47.684;10.806;2022-07-09T03:06:01;94278.56;;;5.18;86.77
16738;BME280;17906;47.684;10.806;2022-07-09T03:08:28;94273.53;;;5.09;87.18
16738;BME280;17906;47.684;10.806;2022-07-09T03:10:54;94270.94;;;5.01;87.51
16738;BME280;17906;47.684;10.806;2022-07-09T03:13:21;94262.78;;;5.09;86.88
16738;BME280;17906;47.684;10.806;2022-07-09T03:15:47;94268.34;;;4.92;87.33
16738;BME280;17906;47.684;10.806;2022-07-09T03:18:14;94266.44;;;4.86;88.06
16738;BME280;17906;47.684;10.806;2022-07-09T03:20:42;94271.44;;;4.75;87.61
16738;BME280;17906;47.684;10.806;2022-07-09T03:23:09;94265.81;;;4.70;88.35
16738;BME280;17906;47.684;10.806;2022-07-09T03:25:38;94267.84;;;4.53;88.67
16738;BME280;17906;47.684;10.806;2022-07-09T03:28:05;94266.19;;;4.66;88.31
16738;BME280;17906;47.684;10.806;2022-07-09T03:30:31;94273.50;;;4.58;88.41
16738;BME280;17906;47.684;10.806;2022-07-09T03:32:58;94266.91;;;4.60;88.24
16738;BME280;17906;47.684;10.806;2022-07-09T03:35:24;94264.78;;;4.41;89.13
16738;BME280;17906;47.684;10.806;2022-07-09T03:37:52;94274.16;;;4.45;89.65
16738;BME280;17906;47.684;10.806;2022-07-09T03:40:19;94269.25;;;4.49;89.28
16738;BME280;17906;47.684;10.806;2022-07-09T03:42:46;94279.41;;;4.53;88.77
16738;BME280;17906;47.684;10.806;2022-07-09T03:45:13;94270.63;;;4.59;88.50
16738;BME280;17906;47.684;10.806;2022-07-09T03:47:39;94268.59;;;4.61;88.31
16738;BME280;17906;47.684;10.806;2022-07-09T03:50:07;94273.41;;;4.66;87.94
16738;BME280;17906;47.684;10.806;2022-07-09T03:52:33;94272.94;;;4.62;88.81
16738;BME280;17906;47.684;10.806;2022-07-09T03:55:01;94263.69;;;4.65;88.90
16738;BME280;17906;47.684;10.806;2022-07-09T03:57:28;94274.69;;;4.70;88.18
16738;BME280;17906;47.684;10.806;2022-07-09T03:59:54;94274.84;;;4.83;88.02
16738;BME280;17906;47.684;10.806;2022-07-09T04:02:21;94276.06;;;4.81;89.29
16738;BME280;17906;47.684;10.806;2022-07-09T04:04:48;94276.78;;;4.89;89.45
16738;BME280;17906;47.684;10.806;2022-07-09T04:07:15;94268.84;;;4.81;89.44
16738;BME280;17906;47.684;10.806;2022-07-09T04:09:42;94278.22;;;4.71;89.45
16738;BME280;17906;47.684;10.806;2022-07-09T04:12:10;94276.09;;;4.66;90.31
16738;BME280;17906;47.684;10.806;2022-07-09T04:14:36;94278.75;;;4.81;89.73
16738;BME280;17906;47.684;10.806;2022-07-09T04:17:03;94276.59;;;4.91;90.57
16738;BME280;17906;47.684;10.806;2022-07-09T04:19:31;94279.53;;;5.11;90.30
16738;BME280;17906;47.684;10.806;2022-07-09T04:21:58;94278.00;;;5.23;90.59
16738;BME280;17906;47.684;10.806;2022-07-09T04:24:24;94283.09;;;5.18;91.04
16738;BME280;17906;47.684;10.806;2022-07-09T04:26:51;94281.91;;;5.20;91.57
16738;BME280;17906;47.684;10.806;2022-07-09T04:29:18;94287.88;;;5.37;91.68
16738;BME280;17906;47.684;10.806;2022-07-09T04:31:45;94287.25;;;5.57;91.44
16738;BME280;17906;47.684;10.806;2022-07-09T04:34:12;94289.81;;;5.65;92.12
16738;BME280;17906;47.684;10.806;2022-07-09T04:36:38;94287.84;;;5.73;91.56
16738;BME280;17906;47.684;10.806;2022-07-09T04:39:05;94279.25;;;5.84;92.30
16738;BME280;17906;47.684;10.806;2022-07-09T04:41:31;94285.38;;;6.00;92.38
16738;BME280;17906;47.684;10.806;2022-07-09T04:43:59;94286.47;;;6.05;92.25
16738;BME280;17906;47.684;10.806;2022-07-09T04:46:27;94288.81;;;6.15;92.34
16738;BME280;17906;47.684;10.806;2022-07-09T04:48:56;94286.41;;;6.27;91.96
16738;BME280;17906;47.684;10.806;2022-07-09T04:51:22;94281.53;;;6.37;91.52
16738;BME280;17906;47.684;10.806;2022-07-09T04:53:49;94286.97;;;6.44;91.47
16738;BME280;17906;47.684;10.806;2022-07-09T04:56:15;94278.28;;;6.48;91.64
16738;BME280;17906;47.684;10.806;2022-07-09T04:58:42;94286.56;;;6.47;91.55
16738;BME280;17906;47.684;10.806;2022-07-09T05:01:17;94281.22;;;6.53;92.64
16738;BME280;17906;47.684;10.806;2022-07-09T05:03:45;94282.97;;;6.67;92.55
16738;BME280;17906;47.684;10.806;2022-07-09T05:06:12;94290.22;;;6.67;93.07
16738;BME280;17906;47.684;10.806;2022-07-09T05:08:39;94280.31;;;6.81;93.47
16738;BME280;17906;47.684;10.806;2022-07-09T05:11:05;94287.84;;;6.85;93.76
16738;BME280;17906;47.684;10.806;2022-07-09T05:13:32;94286.03;;;6.99;93.97
16738;BME280;17906;47.684;10.806;2022-07-09T05:15:58;94291.09;;;7.15;93.15
16738;BME280;17906;47.684;10.806;2022-07-09T05:18:25;94284.50;;;7.31;93.58
16738;BME280;17906;47.684;10.806;2022-07-09T05:20:53;94291.78;;;7.44;93.47
16738;BME280;17906;47.684;10.806;2022-07-09T05:23:20;94282.25;;;7.54;92.39
16738;BME280;17906;47.684;10.806;2022-07-09T05:25:46;94282.72;;;7.71;92.01
16738;BME280;17906;47.684;10.806;2022-07-09T05:28:13;94286.88;;;7.87;92.01
16738;BME280;17906;47.684;10.806;2022-07-09T05:30:39;94268.44;;;7.97;92.25
16738;BME280;17906;47.684;10.806;2022-07-09T05:33:06;94279.69;;;8.14;91.78
16738;BME280;17906;47.684;10.806;2022-07-09T05:35:33;94285.69;;;8.29;91.55
16738;BME280;17906;47.684;10.806;2022-07-09T05:38:01;94285.06;;;8.47;90.39
16738;BME280;17906;47.684;10.806;2022-07-09T05:40:28;94280.03;;;8.64;89.70
16738;BME280;17906;47.684;10.806;2022-07-09T05:42:54;94292.91;;;8.75;89.36
16738;BME280;17906;47.684;10.806;2022-07-09T05:45:21;94282.69;;;8.90;88.20
16738;BME280;17906;47.684;10.806;2022-07-09T05:47:47;94279.13;;;9.03;87.41
16738;BME280;17906;47.684;10.806;2022-07-09T05:50:14;94288.00;;;9.17;87.39
16738;BME280;17906;47.684;10.806;2022-07-09T05:52:40;94287.31;;;9.35;87.30
16738;BME280;17906;47.684;10.806;2022-07-09T05:55:09;94287.88;;;9.56;87.48
16738;BME280;17906;47.684;10.806;2022-07-09T05:57:35;94289.66;;;9.69;87.33
16738;BME280;17906;47.684;10.806;2022-07-09T06:00:03;94282.72;;;9.80;86.89
16738;BME280;17906;47.684;10.806;2022-07-09T06:02:30;94291.84;;;9.85;87.20
16738;BME280;17906;47.684;10.806;2022-07-09T06:04:57;94286.38;;;9.99;87.21
16738;BME280;17906;47.684;10.806;2022-07-09T06:07:24;94292.97;;;10.09;85.56
16738;BME280;17906;47.684;10.806;2022-07-09T06:09:51;94284.94;;;10.21;85.83
16738;BME280;17906;47.684;10.806;2022-07-09T06:12:19;94287.69;;;10.39;84.28
16738;BME280;17906;47.684;10.806;2022-07-09T06:14:45;94290.75;;;10.50;84.68
16738;BME280;17906;47.684;10.806;2022-07-09T06:17:12;94291.25;;;10.65;83.10
16738;BME280;17906;47.684;10.806;2022-07-09T06:19:38;94284.41;;;10.81;84.52
16738;BME280;17906;47.684;10.806;2022-07-09T06:22:05;94283.53;;;10.87;81.79
16738;BME280;17906;47.684;10.806;2022-07-09T06:24:32;94286.88;;;10.89;82.05
16738;BME280;17906;47.684;10.806;2022-07-09T06:26:58;94288.88;;;10.93;81.34
16738;BME280;17906;47.684;10.806;2022-07-09T06:29:26;94284.31;;;11.12;80.89
16738;BME280;17906;47.684;10.806;2022-07-09T06:31:53;94288.53;;;11.26;82.12
16738;BME280;17906;47.684;10.806;2022-07-09T06:34:23;94285.81;;;11.45;80.88
16738;BME280;17906;47.684;10.806;2022-07-09T06:36:49;94299.97;;;11.65;79.20
16738;BME280;17906;47.684;10.806;2022-07-09T06:39:16;94287.72;;;11.74;80.65
16738;BME280;17906;47.684;10.806;2022-07-09T06:42:03;94291.56;;;11.85;79.28
16738;BME280;17906;47.684;10.806;2022-07-09T06:44:32;94292.94;;;12.06;79.16
16738;BME280;17906;47.684;10.806;2022-07-09T06:46:58;94289.94;;;12.26;76.46
16738;BME280;17906;47.684;10.806;2022-07-09T06:49:25;94289.50;;;12.40;78.24
16738;BME280;17906;47.684;10.806;2022-07-09T06:51:52;94284.66;;;12.54;75.53
16738;BME280;17906;47.684;10.806;2022-07-09T06:54:19;94281.50;;;12.57;75.02
16738;BME280;17906;47.684;10.806;2022-07-09T06:56:46;94287.53;;;12.71;73.72
16738;BME280;17906;47.684;10.806;2022-07-09T06:59:13;94294.16;;;12.87;74.25
16738;BME280;17906;47.684;10.806;2022-07-09T07:01:41;94281.75;;;12.91;72.55
16738;BME280;17906;47.684;10.806;2022-07-09T07:04:08;94291.31;;;12.93;70.65
16738;BME280;17906;47.684;10.806;2022-07-09T07:06:37;94283.47;;;13.08;72.73
16738;BME280;17906;47.684;10.806;2022-07-09T07:09:03;94283.84;;;13.24;71.31
16738;BME280;17906;47.684;10.806;2022-07-09T07:11:30;94286.56;;;13.24;72.90
16738;BME280;17906;47.684;10.806;2022-07-09T07:13:57;94285.50;;;13.37;71.64
16738;BME280;17906;47.684;10.806;2022-07-09T07:16:23;94292.69;;;13.43;68.47
16738;BME280;17906;47.684;10.806;2022-07-09T07:18:51;94277.75;;;13.57;72.04
16738;BME280;17906;47.684;10.806;2022-07-09T07:21:18;94280.53;;;13.74;69.33
16738;BME280;17906;47.684;10.806;2022-07-09T07:23:45;94275.97;;;13.91;71.23
16738;BME280;17906;47.684;10.806;2022-07-09T07:26:11;94285.75;;;14.04;69.35
16738;BME280;17906;47.684;10.806;2022-07-09T07:28:38;94276.81;;;14.20;69.99
16738;BME280;17906;47.684;10.806;2022-07-09T07:31:04;94274.91;;;14.37;70.22
16738;BME280;17906;47.684;10.806;2022-07-09T07:33:31;94269.56;;;14.59;68.05
16738;BME280;17906;47.684;10.806;2022-07-09T07:35:59;94265.69;;;14.72;65.97
16738;BME280;17906;47.684;10.806;2022-07-09T07:38:25;94267.09;;;14.91;66.89
16738;BME280;17906;47.684;10.806;2022-07-09T07:40:52;94260.53;;;15.09;65.32
16738;BME280;17906;47.684;10.806;2022-07-09T07:43:19;94259.91;;;15.24;61.74
16738;BME280;17906;47.684;10.806;2022-07-09T07:45:46;94257.63;;;15.54;59.22
16738;BME280;17906;47.684;10.806;2022-07-09T07:48:12;94257.78;;;15.48;60.91
16738;BME280;17906;47.684;10.806;2022-07-09T07:50:39;94259.63;;;15.86;60.31
16738;BME280;17906;47.684;10.806;2022-07-09T07:53:07;94248.09;;;16.33;59.65
16738;BME280;17906;47.684;10.806;2022-07-09T07:55:34;94252.31;;;16.40;56.92
16738;BME280;17906;47.684;10.806;2022-07-09T07:58:01;94244.75;;;16.52;55.71
16738;BME280;17906;47.684;10.806;2022-07-09T08:00:28;94248.47;;;16.73;53.05
16738;BME280;17906;47.684;10.806;2022-07-09T08:02:54;94258.38;;;16.47;51.43
16738;BME280;17906;47.684;10.806;2022-07-09T08:05:21;94256.59;;;16.63;50.87
16738;BME280;17906;47.684;10.806;2022-07-09T08:07:47;94250.09;;;17.06;53.28
16738;BME280;17906;47.684;10.806;2022-07-09T08:10:16;94257.88;;;16.83;52.68
16738;BME280;17906;47.684;10.806;2022-07-09T08:12:42;94253.81;;;16.58;53.00
16738;BME280;17906;47.684;10.806;2022-07-09T08:15:10;94252.50;;;16.66;51.92
16738;BME280;17906;47.684;10.806;2022-07-09T08:17:37;94257.22;;;17.13;50.11
16738;BME280;17906;47.684;10.806;2022-07-09T08:20:04;94255.34;;;17.13;48.37
16738;BME280;17906;47.684;10.806;2022-07-09T08:22:31;94251.91;;;17.33;49.95
16738;BME280;17906;47.684;10.806;2022-07-09T08:24:58;94244.63;;;17.49;48.33
16738;BME280;17906;47.684;10.806;2022-07-09T08:27:26;94249.81;;;17.08;49.52
16738;BME280;17906;47.684;10.806;2022-07-09T08:29:52;94244.50;;;17.28;45.69
16738;BME280;17906;47.684;10.806;2022-07-09T08:32:19;94246.38;;;17.75;45.68
16738;BME280;17906;47.684;10.806;2022-07-09T08:34:45;94242.16;;;18.15;45.52
16738;BME280;17906;47.684;10.806;2022-07-09T08:37:12;94244.66;;;18.21;44.40
16738;BME280;17906;47.684;10.806;2022-07-09T08:39:39;94237.25;;;18.63;41.75
16738;BME280;17906;47.684;10.806;2022-07-09T08:42:08;94230.72;;;18.99;41.07
16738;BME280;17906;47.684;10.806;2022-07-09T08:44:37;94243.03;;;19.32;41.42
16738;BME280;17906;47.684;10.806;2022-07-09T08:47:05;94231.50;;;19.30;40.65
16738;BME280;17906;47.684;10.806;2022-07-09T08:49:32;94236.69;;;19.37;40.09
16738;BME280;17906;47.684;10.806;2022-07-09T08:52:01;94233.63;;;19.54;39.73
16738;BME280;17906;47.684;10.806;2022-07-09T08:54:28;94235.50;;;19.68;42.23
16738;BME280;17906;47.684;10.806;2022-07-09T08:56:56;94236.22;;;19.94;40.53
16738;BME280;17906;47.684;10.806;2022-07-09T08:59:22;94234.81;;;20.02;39.34
16738;BME280;17906;47.684;10.806;2022-07-09T09:01:50;94236.50;;;19.98;39.84
16738;BME280;17906;47.684;10.806;2022-07-09T09:04:18;94226.31;;;19.93;39.20
16738;BME280;17906;47.684;10.806;2022-07-09T09:06:44;94227.66;;;20.06;40.03
16738;BME280;17906;47.684;10.806;2022-07-09T09:09:17;94221.66;;;20.43;38.13
16738;BME280;17906;47.684;10.806;2022-07-09T09:11:47;94221.59;;;20.48;38.62
16738;BME280;17906;47.684;10.806;2022-07-09T09:14:19;94230.28;;;20.26;37.80
16738;BME280;17906;47.684;10.806;2022-07-09T09:16:46;94216.09;;;20.53;38.99
16738;BME280;17906;47.684;10.806;2022-07-09T09:19:15;94217.19;;;20.52;37.10
16738;BME280;17906;47.684;10.806;2022-07-09T09:21:41;94212.56;;;20.43;36.06
16738;BME280;17906;47.684;10.806;2022-07-09T09:24:08;94208.28;;;21.00;38.34
16738;BME280;17906;47.684;10.806;2022-07-09T09:26:35;94216.53;;;21.34;37.64
16738;BME280;17906;47.684;10.806;2022-07-09T09:29:03;94209.25;;;21.43;36.66
16738;BME280;17906;47.684;10.806;2022-07-09T09:31:32;94212.84;;;21.44;38.99
16738;BME280;17906;47.684;10.806;2022-07-09T09:34:12;94210.16;;;21.38;38.63
16738;BME280;17906;47.684;10.806;2022-07-09T09:36:41;94212.34;;;21.07;39.12
16738;BME280;17906;47.684;10.806;2022-07-09T09:39:13;94205.94;;;21.12;39.36
16738;BME280;17906;47.684;10.806;2022-07-09T09:41:41;94207.13;;;21.06;40.97
16738;BME280;17906;47.684;10.806;2022-07-09T09:44:09;94198.47;;;21.18;38.78
16738;BME280;17906;47.684;10.806;2022-07-09T09:46:37;94198.63;;;21.55;39.25
16738;BME280;17906;47.684;10.806;2022-07-09T09:49:04;94196.09;;;22.07;39.40
16738;BME280;17906;47.684;10.806;2022-07-09T09:51:35;94190.66;;;22.58;37.82
16738;BME280;17906;47.684;10.806;2022-07-09T09:54:04;94184.84;;;22.03;36.39
16738;BME280;17906;47.684;10.806;2022-07-09T09:56:31;94190.66;;;22.20;37.98
16738;BME280;17906;47.684;10.806;2022-07-09T09:58:59;94189.22;;;22.61;39.32
16738;BME280;17906;47.684;10.806;2022-07-09T10:01:27;94176.84;;;22.39;39.26
16738;BME280;17906;47.684;10.806;2022-07-09T10:03:54;94187.06;;;22.58;39.83
16738;BME280;17906;47.684;10.806;2022-07-09T10:06:21;94182.59;;;22.62;36.70
16738;BME280;17906;47.684;10.806;2022-07-09T10:08:48;94182.28;;;22.82;37.80
16738;BME280;17906;47.684;10.806;2022-07-09T10:11:16;94188.72;;;22.40;38.82
16738;BME280;17906;47.684;10.806;2022-07-09T10:13:52;94183.94;;;22.26;39.40
16738;BME280;17906;47.684;10.806;2022-07-09T10:16:32;94185.88;;;22.07;36.92
16738;BME280;17906;47.684;10.806;2022-07-09T10:18:58;94184.91;;;22.54;38.40
16738;BME280;17906;47.684;10.806;2022-07-09T10:21:35;94180.47;;;22.91;34.35
16738;BME280;17906;47.684;10.806;2022-07-09T10:24:03;94178.56;;;22.73;36.33
16738;BME280;17906;47.684;10.806;2022-07-09T10:26:43;94186.94;;;22.49;37.44
16738;BME280;17906;47.684;10.806;2022-07-09T10:29:22;94175.97;;;21.82;34.84
16738;BME280;17906;47.684;10.806;2022-07-09T10:31:50;94182.06;;;21.79;38.49
16738;BME280;17906;47.684;10.806;2022-07-09T10:34:46;94180.59;;;21.87;36.50
16738;BME280;17906;47.684;10.806;2022-07-09T10:37:16;94179.97;;;21.90;37.23
16738;BME280;17906;47.684;10.806;2022-07-09T10:39:52;94188.03;;;22.29;36.03
16738;BME280;17906;47.684;10.806;2022-07-09T10:42:21;94174.59;;;22.60;37.21
16738;BME280;17906;47.684;10.806;2022-07-09T10:44:49;94168.59;;;22.91;37.82
16738;BME280;17906;47.684;10.806;2022-07-09T10:47:16;94174.44;;;23.35;36.19
16738;BME280;17906;47.684;10.806;2022-07-09T10:49:43;94171.53;;;22.62;34.47
16738;BME280;17906;47.684;10.806;2022-07-09T10:52:10;94161.81;;;22.64;35.82
16738;BME280;17906;47.684;10.806;2022-07-09T10:54:45;94174.09;;;21.96;33.85
16738;BME280;17906;47.684;10.806;2022-07-09T10:57:13;94169.91;;;22.04;34.87
16738;BME280;17906;47.684;10.806;2022-07-09T10:59:44;94164.81;;;22.11;34.72
16738;BME280;17906;47.684;10.806;2022-07-09T11:02:17;94156.66;;;22.01;36.55
16738;BME280;17906;47.684;10.806;2022-07-09T11:04:48;94158.41;;;22.16;36.08
16738;BME280;17906;47.684;10.806;2022-07-09T11:07:19;94151.38;;;22.42;37.66
16738;BME280;17906;47.684;10.806;2022-07-09T11:09:46;94153.41;;;22.18;36.06
16738;BME280;17906;47.684;10.806;2022-07-09T11:12:14;94145.69;;;22.34;36.92
16738;BME280;17906;47.684;10.806;2022-07-09T11:14:44;94150.13;;;22.35;36.08
16738;BME280;17906;47.684;10.806;2022-07-09T11:17:14;94138.31;;;22.29;36.84
16738;BME280;17906;47.684;10.806;2022-07-09T11:19:41;94155.09;;;22.33;34.60
16738;BME280;17906;47.684;10.806;2022-07-09T11:22:08;94145.69;;;22.34;35.12
16738;BME280;17906;47.684;10.806;2022-07-09T11:24:35;94144.09;;;22.65;35.08
16738;BME280;17906;47.684;10.806;2022-07-09T11:27:03;94144.91;;;22.66;36.28
16738;BME280;17906;47.684;10.806;2022-07-09T11:29:30;94142.06;;;22.38;34.59
16738;BME280;17906;47.684;10.806;2022-07-09T11:31:58;94136.22;;;22.21;36.94
16738;BME280;17906;47.684;10.806;2022-07-09T11:34:27;94134.25;;;21.84;37.74
16738;BME280;17906;47.684;10.806;2022-07-09T11:36:56;94140.47;;;21.94;37.90
16738;BME280;17906;47.684;10.806;2022-07-09T11:39:24;94130.03;;;22.10;37.81
16738;BME280;17906;47.684;10.806;2022-07-09T11:41:51;94127.09;;;22.58;41.29
16738;BME280;17906;47.684;10.806;2022-07-09T11:44:22;94132.00;;;22.61;37.31
16738;BME280;17906;47.684;10.806;2022-07-09T11:47:04;94133.75;;;22.38;35.84
16738;BME280;17906;47.684;10.806;2022-07-09T11:49:35;94136.00;;;22.17;37.68
16738;BME280;17906;47.684;10.806;2022-07-09T11:52:03;94129.66;;;22.17;34.81
16738;BME280;17906;47.684;10.806;2022-07-09T11:54:30;94130.94;;;22.06;34.78
16738;BME280;17906;47.684;10.806;2022-07-09T11:56:57;94150.22;;;21.87;35.40
16738;BME280;17906;47.684;10.806;2022-07-09T11:59:27;94128.69;;;22.45;35.12
16738;BME280;17906;47.684;10.806;2022-07-09T12:01:57;94122.59;;;22.81;32.17
16738;BME280;17906;47.684;10.806;2022-07-09T12:04:28;94124.50;;;23.13;35.38
16738;BME280;17906;47.684;10.806;2022-07-09T12:06:55;94122.66;;;23.22;36.88
16738;BME280;17906;47.684;10.806;2022-07-09T12:09:29;94122.06;;;22.79;34.52
16738;BME280;17906;47.684;10.806;2022-07-09T12:11:56;94115.03;;;22.16;35.33
16738;BME280;17906;47.684;10.806;2022-07-09T12:14:23;94124.88;;;22.41;37.59
16738;BME280;17906;47.684;10.806;2022-07-09T12:16:50;94107.91;;;22.48;35.41
16738;BME280;17906;47.684;10.806;2022-07-09T12:19:16;94109.00;;;22.14;32.33
16738;BME280;17906;47.684;10.806;2022-07-09T12:21:45;94108.97;;;21.95;32.23
16738;BME280;17906;47.684;10.806;2022-07-09T12:24:11;94106.72;;;21.97;33.35
16738;BME280;17906;47.684;10.806;2022-07-09T12:26:38;94103.47;;;22.14;34.89
16738;BME280;17906;47.684;10.806;2022-07-09T12:29:05;94106.75;;;22.35;33.93
16738;BME280;17906;47.684;10.806;2022-07-09T12:31:31;94101.41;;;22.58;37.55
16738;BME280;17906;47.684;10.806;2022-07-09T12:34:01;94093.00;;;22.63;34.12
16738;BME280;17906;47.684;10.806;2022-07-09T12:36:28;94097.63;;;22.67;37.78
16738;BME280;17906;47.684;10.806;2022-07-09T12:38:56;94100.84;;;22.55;31.58
16738;BME280;17906;47.684;10.806;2022-07-09T12:41:23;94094.88;;;22.67;36.60
16738;BME280;17906;47.684;10.806;2022-07-09T12:43:49;94084.69;;;22.49;36.66
16738;BME280;17906;47.684;10.806;2022-07-09T12:46:16;94085.75;;;22.34;37.66
16738;BME280;17906;47.684;10.806;2022-07-09T12:48:43;94083.16;;;22.24;34.12
16738;BME280;17906;47.684;10.806;2022-07-09T12:51:09;94078.28;;;22.35;38.49
16738;BME280;17906;47.684;10.806;2022-07-09T12:53:36;94074.78;;;22.10;34.87
16738;BME280;17906;47.684;10.806;2022-07-09T12:56:04;94070.25;;;22.01;39.18
16738;BME280;17906;47.684;10.806;2022-07-09T12:58:31;94076.84;;;21.99;37.49